createdAt,value
2019-03-22T00:01:40.566Z,59.73
2019-03-22T00:04:10.900Z,62.15
2019-03-22T00:06:42.290Z,65.80
2019-03-22T00:09:12.645Z,61.60
2019-03-22T00:11:42.985Z,72.67
2019-03-22T00:14:14.118Z,64.80
2019-03-22T00:16:44.837Z,53.58
2019-03-22T00:19:15.501Z,59.90
2019-03-22T00:21:45.840Z,60.43
2019-03-22T00:24:16.687Z,69.32
2019-03-22T00:26:47.030Z,67.50
2019-03-22T00:29:17.389Z,60.30
2019-03-22T00:31:47.777Z,60.48
2019-03-22T00:34:18.118Z,57.20
2019-03-22T00:36:48.460Z,57.45
2019-03-22T00:39:18.843Z,63.25
2019-03-22T00:41:49.872Z,59.30
2019-03-22T00:44:20.505Z,57.98
2019-03-22T00:46:51.161Z,66.25
2019-03-22T00:49:21.863Z,59.58
2019-03-22T00:51:52.208Z,66.82
2019-03-22T00:54:23.237Z,56.35
2019-03-22T00:56:54.303Z,57.20
2019-03-22T00:59:24.669Z,53.40
2019-03-22T01:01:55.629Z,61.48
2019-03-22T01:04:25.995Z,51.23
2019-03-22T01:06:56.718Z,66.47
2019-03-22T01:09:27.104Z,52.40
2019-03-22T01:11:57.875Z,53.50
2019-03-22T01:14:28.377Z,58.73
2019-03-22T01:16:59.663Z,61.05
2019-03-22T01:19:30.468Z,56.50
2019-03-22T01:22:01.133Z,69.42
2019-03-22T01:24:31.859Z,60.30
2019-03-22T01:27:02.238Z,62.15
2019-03-22T01:29:33.109Z,54.98
2019-03-22T01:32:03.572Z,66.90
2019-03-22T01:34:34.306Z,63.87
2019-03-22T01:37:04.687Z,57.35
2019-03-22T01:39:35.051Z,52.23
2019-03-22T01:42:05.447Z,61.53
2019-03-22T01:44:36.064Z,55.52
2019-03-22T01:47:06.431Z,55.73
2019-03-22T01:49:37.176Z,62.17
2019-03-22T01:52:07.542Z,65.37
2019-03-22T01:54:38.762Z,56.05
2019-03-22T01:57:09.372Z,63.78
2019-03-22T01:59:39.722Z,54.03
2019-03-22T02:02:10.070Z,57.80
2019-03-22T02:04:40.885Z,58.65
2019-03-22T02:07:11.499Z,61.75
2019-03-22T02:09:41.848Z,63.10
2019-03-22T02:12:12.598Z,62.10
2019-03-22T02:14:43.726Z,62.85
2019-03-22T02:17:14.081Z,58.83
2019-03-22T02:19:44.419Z,60.63
2019-03-22T02:22:15.107Z,58.13
2019-03-22T02:24:46.139Z,61.85
2019-03-22T02:27:16.508Z,60.83
2019-03-22T02:29:46.870Z,59.83
2019-03-22T02:32:17.247Z,60.35
2019-03-22T02:34:47.603Z,58.70
2019-03-22T02:37:18.328Z,53.40
2019-03-22T02:39:48.689Z,53.33
2019-03-22T02:42:19.376Z,53.28
2019-03-22T02:44:49.909Z,60.25
2019-03-22T02:47:20.290Z,54.33
2019-03-22T02:49:50.685Z,56.02
2019-03-22T02:52:21.728Z,50.98
2019-03-22T02:54:52.111Z,58.28
2019-03-22T02:57:22.739Z,61.70
2019-03-22T02:59:53.148Z,57.45
2019-03-22T03:02:23.513Z,63.90
2019-03-22T03:04:54.240Z,57.05
2019-03-22T03:07:24.573Z,65.60
2019-03-22T03:09:55.317Z,57.33
2019-03-22T03:12:26.077Z,55.17
2019-03-22T03:14:56.442Z,53.60
2019-03-22T03:17:27.242Z,60.52
2019-03-22T03:19:57.972Z,59.23
2019-03-22T03:22:29.096Z,53.83
2019-03-22T03:24:59.802Z,61.50
2019-03-22T03:27:30.785Z,55.80
2019-03-22T03:30:01.164Z,55.98
2019-03-22T03:32:31.807Z,58.90
2019-03-22T03:35:02.514Z,58.50
2019-03-22T03:37:33.322Z,58.42
2019-03-22T03:40:10.203Z,62.83
2019-03-22T03:42:40.883Z,62.20
2019-03-22T03:45:36.181Z,59.93
2019-03-22T03:48:10.556Z,57.60
2019-03-22T03:50:41.278Z,58.90
2019-03-22T03:53:11.637Z,63.17
2019-03-22T03:55:41.975Z,59.33
2019-03-22T03:58:12.683Z,64.37
2019-03-22T04:00:43.330Z,62.67
2019-03-22T04:03:13.958Z,65.12
2019-03-22T04:05:44.352Z,59.85
2019-03-22T04:08:14.706Z,74.03
2019-03-22T04:10:45.351Z,67.45
2019-03-22T04:13:16.112Z,65.62
2019-03-22T04:15:46.456Z,74.20
2019-03-22T04:18:16.824Z,71.95
2019-03-22T04:20:47.179Z,70.70
2019-03-22T04:23:17.904Z,66.40
2019-03-22T04:25:48.259Z,65.45
2019-03-22T04:28:19.465Z,73.45
2019-03-22T04:30:49.814Z,94.55
2019-03-22T04:33:20.524Z,77.85
2019-03-22T04:35:50.900Z,76.35
2019-03-22T04:38:21.587Z,71.92
2019-03-22T04:40:52.746Z,74.95
2019-03-22T04:43:23.100Z,83.20
2019-03-22T04:45:54.009Z,80.35
2019-03-22T04:48:31.133Z,99.42
2019-03-22T04:51:01.518Z,97.20
2019-03-22T04:53:39.539Z,91.57
2019-03-22T04:56:12.197Z,119.75
2019-03-22T04:58:42.949Z,108.00
2019-03-22T05:01:13.449Z,110.03
2019-03-22T05:03:44.857Z,104.23
2019-03-22T05:06:16.099Z,82.78
2019-03-22T05:08:46.584Z,64.90
2019-03-22T05:11:17.247Z,68.83
2019-03-22T05:13:47.674Z,59.90
2019-03-22T05:16:18.041Z,68.33
2019-03-22T05:18:49.171Z,84.28
2019-03-22T05:21:19.634Z,83.50
2019-03-22T05:23:50.251Z,70.05
2019-03-22T05:26:21.255Z,77.58
2019-03-22T05:28:52.095Z,69.10
2019-03-22T05:31:27.363Z,78.40
2019-03-22T05:33:58.095Z,76.45
2019-03-22T05:36:28.735Z,73.60
2019-03-22T05:38:59.443Z,76.00
2019-03-22T05:41:29.831Z,69.90
2019-03-22T05:44:00.533Z,77.07
2019-03-22T05:46:30.908Z,79.70
2019-03-22T05:49:01.241Z,82.70
2019-03-22T05:51:31.616Z,76.57
2019-03-22T05:54:01.964Z,81.40
2019-03-22T05:56:32.363Z,81.07
2019-03-22T05:59:03.053Z,79.07
2019-03-22T06:01:33.484Z,77.03
2019-03-22T06:04:03.903Z,73.10
2019-03-22T06:06:34.574Z,75.70
2019-03-22T06:09:08.653Z,81.60
2019-03-22T06:11:39.073Z,84.40
2019-03-22T06:14:09.724Z,75.53
2019-03-22T06:16:40.386Z,82.30
2019-03-22T06:19:11.094Z,80.17
2019-03-22T06:21:41.752Z,78.67
2019-03-22T06:24:12.156Z,83.83
2019-03-22T06:26:42.895Z,81.75
2019-03-22T06:29:13.242Z,76.28
2019-03-22T06:31:43.634Z,79.63
2019-03-22T06:34:14.011Z,77.40
2019-03-22T06:36:44.821Z,78.57
2019-03-22T06:39:15.574Z,75.53
2019-03-22T06:41:46.188Z,72.47
2019-03-22T06:44:16.653Z,66.97
2019-03-22T06:46:47.380Z,81.63
2019-03-22T06:49:17.755Z,74.07
2019-03-22T06:51:48.089Z,73.40
2019-03-22T06:54:30.680Z,75.90
2019-03-22T06:56:51.198Z,80.80
2019-03-22T06:59:21.560Z,68.23
2019-03-22T07:01:52.588Z,72.20
2019-03-22T07:04:22.948Z,76.77
2019-03-22T07:06:53.650Z,76.23
2019-03-22T07:09:24.288Z,73.73
2019-03-22T07:11:54.661Z,70.70
2019-03-22T07:14:25.494Z,77.23
2019-03-22T07:16:58.723Z,78.57
2019-03-22T07:19:28.767Z,67.00
2019-03-22T07:21:59.139Z,68.83
2019-03-22T07:24:29.496Z,63.67
2019-03-22T07:27:00.354Z,67.27
2019-03-22T07:29:30.720Z,77.83
2019-03-22T07:32:01.077Z,68.00
2019-03-22T07:34:31.460Z,69.77
2019-03-22T07:37:02.106Z,72.27
2019-03-22T07:39:32.459Z,69.83
2019-03-22T07:44:44.017Z,64.33
2019-03-22T07:47:14.638Z,59.80
2019-03-22T07:49:45.403Z,56.70
2019-03-22T07:52:16.034Z,69.30
2019-03-22T07:54:46.407Z,63.60
2019-03-22T07:57:17.427Z,61.90
2019-03-22T07:59:48.619Z,62.43
2019-03-22T08:02:19.766Z,58.70
2019-03-22T08:04:50.941Z,57.47
2019-03-22T08:07:21.694Z,59.17
2019-03-22T08:09:52.755Z,52.77
2019-03-22T08:12:23.302Z,63.10
2019-03-22T08:14:53.692Z,54.63
2019-03-22T08:17:24.352Z,56.90
2019-03-22T08:19:57.277Z,55.23
2019-03-22T08:22:27.155Z,55.10
2019-03-22T08:24:57.908Z,63.80
2019-03-22T08:27:28.607Z,54.57
2019-03-22T08:29:59.005Z,58.47
2019-03-22T08:32:29.448Z,59.20
2019-03-22T08:34:59.788Z,60.60
2019-03-22T08:37:30.567Z,62.27
2019-03-22T08:40:00.932Z,61.00
2019-03-22T08:42:31.318Z,60.40
2019-03-22T08:45:01.685Z,63.77
2019-03-22T08:47:34.280Z,63.97
2019-03-22T08:50:06.075Z,63.23
2019-03-22T08:52:36.759Z,59.80
2019-03-22T08:55:07.417Z,64.33
2019-03-22T08:57:37.785Z,63.23
2019-03-22T09:00:12.568Z,60.63
2019-03-22T09:02:42.966Z,57.73
2019-03-22T09:05:13.623Z,58.80
2019-03-22T09:07:44.002Z,62.97
2019-03-22T09:10:14.359Z,57.80
2019-03-22T09:12:44.780Z,66.27
2019-03-22T09:15:15.915Z,63.00
2019-03-22T09:17:47.454Z,56.23
2019-03-22T09:20:17.801Z,52.57
2019-03-22T09:22:48.191Z,56.83
2019-03-22T09:25:18.534Z,50.80
2019-03-22T09:27:49.317Z,59.00
2019-03-22T09:30:20.051Z,52.17
2019-03-22T09:32:50.703Z,50.40
2019-03-22T09:35:21.082Z,43.40
2019-03-22T09:37:51.820Z,51.03
2019-03-22T09:40:22.492Z,44.60
2019-03-22T09:42:53.293Z,52.30
2019-03-22T09:45:23.770Z,51.37
2019-03-22T09:47:54.081Z,50.83
2019-03-22T09:50:25.248Z,53.93
2019-03-22T09:52:55.637Z,59.20
2019-03-22T09:55:26.017Z,64.33
2019-03-22T09:57:56.496Z,56.80
2019-03-22T10:00:36.903Z,56.03
2019-03-22T10:03:07.631Z,60.50
2019-03-22T10:05:38.381Z,57.30
2019-03-22T10:08:08.804Z,62.10
2019-03-22T10:10:39.663Z,69.20
2019-03-22T10:13:10.034Z,61.70
2019-03-22T10:15:40.413Z,68.57
2019-03-22T10:18:11.106Z,74.33
2019-03-22T10:20:41.773Z,71.07
2019-03-22T10:23:12.126Z,75.17
2019-03-22T10:25:42.846Z,70.80
2019-03-22T10:28:13.747Z,79.93
2019-03-22T10:30:44.855Z,67.37
2019-03-22T10:33:22.478Z,64.13
2019-03-22T10:35:47.308Z,60.87
2019-03-22T10:38:30.719Z,60.53
2019-03-22T10:40:50.101Z,54.53
2019-03-22T10:43:20.472Z,58.93
2019-03-22T10:45:50.887Z,60.50
2019-03-22T10:48:21.406Z,58.27
2019-03-22T10:50:52.059Z,51.57
2019-03-22T10:53:22.418Z,59.27
2019-03-22T10:55:53.232Z,59.33
2019-03-22T10:58:23.984Z,53.43
2019-03-22T11:00:54.790Z,62.93
2019-03-22T11:03:25.895Z,62.27
2019-03-22T11:05:56.647Z,49.57
2019-03-22T11:08:27.035Z,52.47
2019-03-22T11:10:57.406Z,48.70
2019-03-22T11:13:28.115Z,47.93
2019-03-22T11:15:58.487Z,46.10
2019-03-22T11:18:37.014Z,48.60
2019-03-22T11:21:05.521Z,49.60
2019-03-22T11:23:33.748Z,47.20
2019-03-22T11:26:04.625Z,50.97
2019-03-22T11:28:35.281Z,49.00
2019-03-22T11:31:05.645Z,46.70
2019-03-22T11:33:36.020Z,47.30
2019-03-22T11:36:07.103Z,48.60
2019-03-22T11:38:37.477Z,48.33
2019-03-22T11:41:08.186Z,50.13
2019-03-22T11:43:38.616Z,51.97
2019-03-22T11:46:09.375Z,58.60
2019-03-22T11:48:39.728Z,51.77
2019-03-22T11:51:10.463Z,57.43
2019-03-22T11:53:40.856Z,51.30
2019-03-22T11:56:11.963Z,52.03
2019-03-22T11:58:42.366Z,46.10
2019-03-22T12:01:19.657Z,52.97
2019-03-22T12:03:44.769Z,53.33
2019-03-22T12:06:15.858Z,53.03
2019-03-22T12:08:46.249Z,51.97
2019-03-22T12:11:16.639Z,52.53
2019-03-22T12:13:47.364Z,48.47
2019-03-22T12:16:18.056Z,48.10
2019-03-22T12:18:50.380Z,49.40
2019-03-22T12:21:20.673Z,46.70
2019-03-22T12:23:51.725Z,48.20
2019-03-22T12:26:22.567Z,49.03
2019-03-22T12:28:52.955Z,46.40
2019-03-22T12:31:23.745Z,49.33
2019-03-22T12:33:54.086Z,55.20
2019-03-22T12:36:24.691Z,51.90
2019-03-22T12:39:14.867Z,48.97
2019-03-22T12:41:45.610Z,49.13
2019-03-22T12:44:16.355Z,49.20
2019-03-22T12:46:49.183Z,54.33
2019-03-22T12:49:19.485Z,54.17
2019-03-22T12:51:50.176Z,59.90
2019-03-22T12:54:20.541Z,46.67
2019-03-22T12:56:51.292Z,47.93
2019-03-22T12:59:22.039Z,53.93
2019-03-22T13:01:52.394Z,48.30
2019-03-22T13:04:22.765Z,46.47
2019-03-22T13:06:53.819Z,44.97
2019-03-22T13:09:24.194Z,48.00
2019-03-22T13:11:54.937Z,48.87
2019-03-22T13:14:25.321Z,46.60
2019-03-22T13:16:55.685Z,45.83
2019-03-22T13:19:26.494Z,44.67
2019-03-22T13:21:56.911Z,45.17
2019-03-22T13:24:27.327Z,50.13
2019-03-22T13:26:57.667Z,43.13
2019-03-22T13:29:28.014Z,39.10
2019-03-22T13:31:58.395Z,43.00
2019-03-22T13:34:28.740Z,48.67
2019-03-22T13:36:59.515Z,46.57
2019-03-22T13:39:30.255Z,41.87
2019-03-22T13:42:00.903Z,48.77
2019-03-22T13:44:31.556Z,50.80
2019-03-22T13:47:02.503Z,48.83
2019-03-22T13:49:32.872Z,40.57
2019-03-22T13:52:03.524Z,43.53
2019-03-22T13:54:33.948Z,39.77
2019-03-22T13:57:04.668Z,41.27
2019-03-22T13:59:35.356Z,39.93
2019-03-22T14:02:05.699Z,39.73
2019-03-22T14:04:36.091Z,48.53
2019-03-22T14:07:06.774Z,36.93
2019-03-22T14:09:37.480Z,39.10
2019-03-22T14:12:08.220Z,41.47
2019-03-22T14:14:38.620Z,36.07
2019-03-22T14:17:09.001Z,37.03
2019-03-22T14:19:39.731Z,41.20
2019-03-22T14:22:10.078Z,37.30
2019-03-22T14:24:40.556Z,40.83
2019-03-22T14:27:11.211Z,36.60
2019-03-22T14:29:42.132Z,42.93
2019-03-22T14:32:13.175Z,38.17
2019-03-22T14:34:44.321Z,39.27
2019-03-22T14:37:15.078Z,41.27
2019-03-22T14:39:45.815Z,39.20
2019-03-22T14:42:16.551Z,38.92
2019-03-22T14:44:47.283Z,39.77
2019-03-22T14:47:17.660Z,41.67
2019-03-22T14:49:48.029Z,41.10
2019-03-22T14:52:18.755Z,39.63
2019-03-22T14:54:49.220Z,36.10
2019-03-22T14:57:19.574Z,37.07
2019-03-22T14:59:58.649Z,38.83
2019-03-22T15:02:22.098Z,40.63
2019-03-22T15:04:52.469Z,36.20
2019-03-22T15:07:23.444Z,39.70
2019-03-22T15:09:54.118Z,37.13
2019-03-22T15:12:24.489Z,42.37
2019-03-22T15:15:02.661Z,38.73
2019-03-22T15:17:53.134Z,44.40
2019-03-22T15:20:41.316Z,39.67
2019-03-22T15:23:30.022Z,46.37
2019-03-22T15:26:04.907Z,44.10
2019-03-22T15:28:42.763Z,41.60
2019-03-22T15:31:18.654Z,46.27
2019-03-22T15:33:50.729Z,40.10
2019-03-22T15:36:41.467Z,51.63
2019-03-22T15:39:30.682Z,44.50
2019-03-22T15:42:01.343Z,43.03
2019-03-22T15:44:31.716Z,49.20
2019-03-22T15:47:02.417Z,43.43
2019-03-22T15:49:33.158Z,43.67
2019-03-22T15:52:03.637Z,46.30
2019-03-22T15:54:34.006Z,48.17
2019-03-22T15:57:04.403Z,49.77
2019-03-22T15:59:34.756Z,44.23
2019-03-22T16:02:05.795Z,52.90
2019-03-22T16:04:36.164Z,43.93
2019-03-22T16:07:07.457Z,50.50
2019-03-22T16:09:38.207Z,47.10
2019-03-22T16:12:08.852Z,43.43
2019-03-22T16:14:39.998Z,48.70
2019-03-22T16:17:10.615Z,46.20
2019-03-22T16:19:41.503Z,47.50
2019-03-22T16:22:12.183Z,51.30
2019-03-22T16:24:42.943Z,47.97
2019-03-22T16:27:13.314Z,47.63
2019-03-22T16:29:43.672Z,51.70
2019-03-22T16:32:14.416Z,53.23
2019-03-22T16:34:44.775Z,49.73
2019-03-22T16:37:15.151Z,56.07
2019-03-22T16:39:46.354Z,55.27
2019-03-22T16:42:16.741Z,69.83
2019-03-22T16:44:47.599Z,55.80
2019-03-22T16:47:17.960Z,42.70
2019-03-22T16:49:48.329Z,50.50
2019-03-22T16:52:19.114Z,52.77
2019-03-22T16:54:49.831Z,49.70
2019-03-22T16:57:20.554Z,47.37
2019-03-22T16:59:50.999Z,53.20
2019-03-22T17:02:21.733Z,48.27
2019-03-22T17:04:52.117Z,57.13
2019-03-22T17:07:22.750Z,76.27
2019-03-22T17:09:53.126Z,51.00
2019-03-22T17:12:23.858Z,47.30
2019-03-22T17:14:54.420Z,48.70
2019-03-22T17:17:25.052Z,48.17
2019-03-22T17:19:55.391Z,43.90
2019-03-22T17:22:25.746Z,52.73
2019-03-22T17:24:58.297Z,51.90
2019-03-22T17:27:28.605Z,53.33
2019-03-22T17:29:58.976Z,47.47
2019-03-22T17:32:29.686Z,59.83
2019-03-22T17:35:00.662Z,52.63
2019-03-22T17:37:31.455Z,47.13
2019-03-22T17:40:02.096Z,71.40
2019-03-22T17:42:32.431Z,69.97
2019-03-22T17:45:03.070Z,73.37
2019-03-22T17:47:34.361Z,63.30
2019-03-22T17:50:07.481Z,62.47
2019-03-22T17:52:38.109Z,59.03
2019-03-22T17:55:10.585Z,57.80
2019-03-22T17:57:41.235Z,60.43
2019-03-22T18:00:19.862Z,58.43
2019-03-22T18:02:50.204Z,58.00
2019-03-22T18:05:20.875Z,63.17
2019-03-22T18:07:51.356Z,57.80
2019-03-22T18:10:21.979Z,58.33
2019-03-22T18:12:52.616Z,59.90
2019-03-22T18:15:23.028Z,51.20
2019-03-22T18:17:53.372Z,60.50
2019-03-22T18:20:24.586Z,55.63
2019-03-22T18:22:54.969Z,61.33
2019-03-22T18:25:25.677Z,60.00
2019-03-22T18:27:56.071Z,58.02
2019-03-22T18:30:26.412Z,58.00
2019-03-22T18:32:56.767Z,64.42
2019-03-22T18:35:27.132Z,65.87
2019-03-22T18:37:57.485Z,69.00
2019-03-22T18:40:28.418Z,63.55
2019-03-22T18:42:59.275Z,71.70
2019-03-22T18:45:30.152Z,65.97
2019-03-22T18:48:00.576Z,71.28
2019-03-22T18:50:31.024Z,72.72
2019-03-22T18:53:01.884Z,70.72
2019-03-22T18:55:32.597Z,73.87
2019-03-22T18:58:03.303Z,79.90
2019-03-22T19:00:42.651Z,70.05
2019-03-22T19:03:13.326Z,75.15
2019-03-22T19:05:44.028Z,78.10
2019-03-22T19:08:14.856Z,83.95
2019-03-22T19:10:45.601Z,80.53
2019-03-22T19:13:15.957Z,75.55
2019-03-22T19:15:46.400Z,79.12
2019-03-22T19:18:17.464Z,86.80
2019-03-22T19:20:48.187Z,84.70
2019-03-22T19:23:18.849Z,82.17
2019-03-22T19:25:49.198Z,85.25
2019-03-22T19:28:19.571Z,82.27
2019-03-22T19:30:50.366Z,89.55
2019-03-22T19:33:21.052Z,82.25
2019-03-22T19:35:51.528Z,88.80
2019-03-22T19:38:21.900Z,95.62
2019-03-22T19:40:52.238Z,90.03
2019-03-22T19:43:23.328Z,91.55
2019-03-22T19:45:54.106Z,90.87
2019-03-22T19:48:24.474Z,86.45
2019-03-22T19:50:55.596Z,92.12
2019-03-22T19:53:25.990Z,82.97
2019-03-22T19:55:56.354Z,86.85
2019-03-22T19:58:26.690Z,83.50
2019-03-22T20:00:57.713Z,90.62
2019-03-22T20:03:28.340Z,80.00
2019-03-22T20:05:58.712Z,83.20
2019-03-22T20:08:29.751Z,88.70
2019-03-22T20:11:00.126Z,84.90
2019-03-22T20:13:30.506Z,79.17
2019-03-22T20:16:01.204Z,79.75
2019-03-22T20:18:31.575Z,81.22
2019-03-22T20:21:02.384Z,91.08
2019-03-22T20:23:33.390Z,148.00
2019-03-22T20:26:04.731Z,88.62
2019-03-22T20:28:35.324Z,78.57
2019-03-22T20:31:05.899Z,86.65
2019-03-22T20:33:36.718Z,88.17
2019-03-22T20:36:07.422Z,81.28
2019-03-22T20:38:37.786Z,87.40
2019-03-22T20:41:08.147Z,89.22
2019-03-22T20:43:38.711Z,85.47
2019-03-22T20:46:10.147Z,87.65
2019-03-22T20:48:40.652Z,76.90
2019-03-22T20:51:11.359Z,84.62
2019-03-22T20:53:41.787Z,78.47
2019-03-22T20:56:12.419Z,88.67
2019-03-22T20:58:43.099Z,89.37
2019-03-22T21:01:13.480Z,90.45
2019-03-22T21:03:43.841Z,87.92
2019-03-22T21:06:14.209Z,86.42
2019-03-22T21:08:44.535Z,88.52
2019-03-22T21:11:15.341Z,87.75
2019-03-22T21:13:45.713Z,84.10
2019-03-22T21:16:16.104Z,92.55
2019-03-22T21:18:46.941Z,86.92
2019-03-22T21:21:17.304Z,86.55
2019-03-22T21:23:47.670Z,92.30
2019-03-22T21:26:18.007Z,89.50
2019-03-22T21:28:48.710Z,106.35
2019-03-22T21:31:19.238Z,107.63
2019-03-22T21:33:49.873Z,108.70
2019-03-22T21:36:20.213Z,106.50
2019-03-22T21:38:50.861Z,100.95
2019-03-22T21:41:21.225Z,118.65
2019-03-22T21:43:51.993Z,105.78
2019-03-22T21:46:23.163Z,95.65
2019-03-22T21:48:54.053Z,101.97
2019-03-22T21:51:24.686Z,94.42
2019-03-22T21:53:55.053Z,88.12
2019-03-22T21:56:25.406Z,93.50
2019-03-22T21:58:55.772Z,88.17
2019-03-22T22:01:26.531Z,88.85
2019-03-22T22:03:57.016Z,91.60
2019-03-22T22:06:27.652Z,92.40
2019-03-22T22:08:58.036Z,87.25
2019-03-22T22:11:28.796Z,83.58
2019-03-22T22:13:59.237Z,84.05
2019-03-22T22:16:29.638Z,86.92
2019-03-22T22:19:00.640Z,83.25
2019-03-22T22:21:31.277Z,84.07
2019-03-22T22:24:02.039Z,85.40
2019-03-22T22:26:32.892Z,80.20
2019-03-22T22:29:03.562Z,81.90
2019-03-22T22:31:33.982Z,88.85
2019-03-22T22:34:04.711Z,92.53
2019-03-22T22:36:35.044Z,81.28
2019-03-22T22:39:07.021Z,85.15
2019-03-22T22:41:37.390Z,76.87
2019-03-22T22:44:07.725Z,74.70
2019-03-22T22:46:38.140Z,84.25
2019-03-22T22:49:08.872Z,80.10
2019-03-22T22:51:40.455Z,85.57
2019-03-22T22:54:11.211Z,85.65
2019-03-22T22:56:41.813Z,77.40
2019-03-22T22:59:12.749Z,83.07
2019-03-22T23:01:44.051Z,80.28
2019-03-22T23:04:14.712Z,92.40
2019-03-22T23:06:45.163Z,86.63
2019-03-22T23:09:16.367Z,75.72
2019-03-22T23:11:47.327Z,85.53
2019-03-22T23:14:17.681Z,76.22
2019-03-22T23:16:48.070Z,81.90
2019-03-22T23:19:18.847Z,74.65
2019-03-22T23:21:49.546Z,87.82
2019-03-22T23:24:19.928Z,82.08
2019-03-22T23:26:50.522Z,74.85
2019-03-22T23:29:20.880Z,78.62
2019-03-22T23:31:51.274Z,77.47
2019-03-22T23:34:22.288Z,81.32
2019-03-22T23:36:52.917Z,78.07
2019-03-22T23:39:23.565Z,72.00
2019-03-22T23:41:54.210Z,84.90
2019-03-22T23:44:24.851Z,85.00
2019-03-22T23:46:55.281Z,84.32
2019-03-22T23:49:25.619Z,88.85
2019-03-22T23:51:55.976Z,76.42
2019-03-22T23:54:26.798Z,101.65
2019-03-22T23:56:57.412Z,83.47
2019-03-22T23:59:47.257Z,83.85
